KWRI/WRI METAR and TAF weather

Enter ICAO airport designator
Station Type Date Time Source
KWRI METAR 2019/08/22 03:56 UTC NOAA

KWRI 220356Z VRB03KT 10SM SCT100 24/23 A2987 RMK SLPNO WND DATA ESTMD $


Station Type Date Time Source
KWRI Decoded METAR 2019/08/22 03:56 UTC NOAA

Station name not available
Aug 21, 2019 - 11:56 PM EDT / 2019.08.22 0356 UTC
Wind: Variable at 3 MPH (3 KT):0
Visibility: 10 mile(s):0
Sky conditions: partly cloudy
Temperature: 75 F (24 C)
Dew Point: 73 F (23 C)
Relative Humidity: 94%
Pressure (altimeter): 29.87 in. Hg (1011 hPa)
ob: KWRI 220356Z VRB03KT 10SM SCT100 24/23 A2987 RMK SLPNO WND DATA ESTMD
cycle: 4

Station Type Date Time Source
KWRI TAF 2019/08/22 02:16 UTC NOAA

TAF KWRI 220200Z 2202/2308 23008KT 9999 VCSH SCT040 BKN120 QNH2985INS
TEMPO 2202/2204 24012KT 9000 -TSRA BKN025CB
BECMG 2205/2206 25006KT 8000 BR SCT010 BKN030 QNH2986INS
TEMPO 2208/2212 3200 BR OVC008
BECMG 2212/2213 29012KT 9999 NSW SCT030 QNH2984INS
BECMG 2303/2304 25006KT 8000 -SHRA VCTS FEW025CB BKN030 QNH2987INS TX32/2221Z TN21/2210Z

Example: see airport list